Accueil
METAR-TAF:

METAR-TAF

Aéroports :

Paderborn-Lippstadt, Allemagne

latitude: 51-37N, longitude: 008-37E, altitude: 213 m

Observation

Le bulletin a été fait il y a 34 minutes, à 09:20 UTC
Vent 10 kt de sud-ouest
Température 23°C
Humidité 50%
Pression 1017 hPa
Visibilité 10 km ou plus
pas de nuages en-dessous de 1500 mètres et pas de cumulonimbus.

METAR: EDLP 170920Z 22010KT CAVOK 23/12 Q1017

Heure: 11:54 (09:54 UTC)

Prévision

Le bulletin a été fait il y a 4 heures et 54 minutes, à 05:00 UTC
Prévision valable du 17 à 06 UTC au 18 à 06 UTC
Vent 8 kt de sud
Visibilité 10 km ou plus
Nuages épars à une hauteur de 4000 ft
Temporairement
du 17 à 12 UTC au 17 à 18 UTC
Vent 15 kt de sud-ouest avec des rafales jusqu'à 25 kt
pluie

TAF: EDLP 170500Z 1706/1806 17008KT 9999 SCT040 TEMPO 1712/1718 22015G25KT RA

Observations et prévisions météorologiques de plus de 4000 aéroports (messages METAR et TAF).

Les stations disponibles sont représentées par des disques jaunes et rouges sur la carte.

Passer la souris dessus pour voir le nom de la station.

Cliquer dessus pour voir les observations et prévisions météorologiques.

Pour changer de carte: cliquez sur les boutons verts avec une croix noire pour zoomer, sur le bouton vert avec un tiret pour effectuer un zoom arrière, ou sur les flèches vertes pour les cartes adjacentes.


METAR-TAF: